Time;durP1;ratioP1;P1;durP2;ratioP2;P2;SDS_P1;SDS_P2;PMS_P1;PMS_P2;Temp;Humidity;BMP_temperature;BMP_pressure;BME280_temperature;BME280_humidity;BME280_pressure;Samples;Min_cycle;Max_cycle;Signal;HPM_P1;HPM_P2
2022/08/01 00:00:01;;;;;;;3.40;2.30;;;;;;;21.41;44.10;100630.47;5031660;28;20549;-66
2022/08/01 00:02:28;;;;;;;3.85;2.72;;;;;;;21.44;44.80;100631.91;5031876;28;20084;-66
2022/08/01 00:04:55;;;;;;;2.80;2.30;;;;;;;21.37;45.20;100629.25;5032319;28;20052;-66
2022/08/01 00:07:22;;;;;;;10.00;3.20;;;;;;;21.32;44.98;100629.97;5033115;28;20060;-66
2022/08/01 00:09:49;;;;;;;6.00;2.53;;;;;;;21.32;45.46;100638.16;5013854;28;20049;-66
2022/08/01 00:12:15;;;;;;;6.60;2.50;;;;;;;21.28;45.62;100633.38;5032476;28;20141;-66
2022/08/01 00:14:42;;;;;;;8.05;2.70;;;;;;;21.12;45.98;100624.00;5031212;28;20045;-66
2022/08/01 00:17:08;;;;;;;7.32;2.85;;;;;;;21.17;45.87;100626.84;5031896;28;20076;-66
2022/08/01 00:19:35;;;;;;;3.67;2.25;;;;;;;21.08;46.13;100629.06;5030957;28;20465;-66
2022/08/01 00:22:01;;;;;;;5.07;3.05;;;;;;;20.92;46.59;100626.97;5030312;28;20050;-66
2022/08/01 00:24:28;;;;;;;7.28;2.78;;;;;;;21.05;46.49;100624.06;5031582;28;20497;-66
2022/08/01 00:26:55;;;;;;;6.85;2.80;;;;;;;21.06;46.39;100628.44;5030895;28;20561;-66
2022/08/01 00:29:22;;;;;;;9.65;3.28;;;;;;;21.03;46.60;100626.16;5030618;28;20136;-66
2022/08/01 00:32:08;;;;;;;7.95;3.38;;;;;;;20.97;46.84;100640.72;5030318;28;20050;-66
2022/08/01 00:34:35;;;;;;;5.40;3.10;;;;;;;21.01;47.02;100641.94;5030592;28;20095;-66
2022/08/01 00:37:01;;;;;;;5.10;3.03;;;;;;;20.97;47.16;100632.53;5030887;28;20049;-66
2022/08/01 00:39:28;;;;;;;4.22;2.78;;;;;;;20.91;47.48;100634.31;5030169;28;20124;-66
2022/08/01 00:41:54;;;;;;;6.05;2.40;;;;;;;20.95;47.45;100631.97;5030124;28;20136;-66
2022/08/01 00:44:26;;;;;;;5.80;2.75;;;;;;;20.94;47.32;100632.19;5030655;28;20437;-66
2022/08/01 00:46:53;;;;;;;5.07;2.95;;;;;;;20.95;47.47;100631.13;5031101;28;20048;-66
2022/08/01 00:49:19;;;;;;;5.68;2.67;;;;;;;20.89;47.54;100625.53;5030730;28;20073;-66
2022/08/01 00:51:46;;;;;;;4.47;2.90;;;;;;;20.91;47.67;100634.31;5030231;28;20045;-66
2022/08/01 00:54:12;;;;;;;8.43;3.05;;;;;;;20.88;47.97;100628.50;5030753;28;20049;-66
2022/08/01 00:56:42;;;;;;;6.85;2.58;;;;;;;20.83;47.86;100629.16;5030572;28;20456;-66
2022/08/01 00:59:10;;;;;;;6.70;2.70;;;;;;;20.85;48.02;100629.78;5030837;28;20124;-66
2022/08/01 01:01:39;;;;;;;5.88;3.03;;;;;;;20.80;48.23;100624.22;5029794;28;20048;-66
2022/08/01 01:04:12;;;;;;;4.25;3.05;;;;;;;20.78;48.40;100629.03;5030448;28;20045;-66
2022/08/01 01:07:25;;;;;;;7.50;2.90;;;;;;;20.78;48.45;100620.88;5030259;28;20117;-66
2022/08/01 01:10:02;;;;;;;7.22;3.35;;;;;;;20.76;48.53;100620.25;5030276;28;20041;-66
2022/08/01 01:12:36;;;;;;;3.92;2.80;;;;;;;20.71;48.93;100627.47;5030002;28;20060;-66
2022/08/01 01:15:20;;;;;;;6.25;3.03;;;;;;;20.69;49.09;100624.97;5030159;28;20100;-66
2022/08/01 01:17:50;;;;;;;13.20;3.33;;;;;;;20.69;49.09;100619.50;5031079;28;20140;-66
2022/08/01 01:20:20;;;;;;;5.10;2.90;;;;;;;20.65;49.31;100619.13;5030676;28;20041;-66
2022/08/01 01:22:52;;;;;;;3.70;2.78;;;;;;;20.65;49.40;100618.31;5030199;28;20057;-66
2022/08/01 01:25:40;;;;;;;4.50;2.70;;;;;;;20.64;49.38;100622.94;5035442;28;20075;-66
2022/08/01 01:28:18;;;;;;;4.05;2.80;;;;;;;20.62;49.66;100619.59;5030475;28;20124;-66
2022/08/01 01:30:48;;;;;;;6.43;2.67;;;;;;;20.58;49.85;100620.28;5030281;28;20465;-66
2022/08/01 01:33:17;;;;;;;5.35;2.88;;;;;;;20.60;49.96;100620.91;5028831;28;20124;-65
2022/08/01 01:35:48;;;;;;;7.10;3.35;;;;;;;20.55;50.17;100612.56;5030328;28;20441;-65
2022/08/01 01:38:21;;;;;;;6.35;3.08;;;;;;;20.56;49.74;100608.78;5030647;28;20144;-65
2022/08/01 01:40:50;;;;;;;4.22;2.78;;;;;;;20.52;50.42;100602.13;5030099;28;20124;-65
2022/08/01 01:43:17;;;;;;;4.95;3.45;;;;;;;20.46;50.60;100608.50;5029854;28;20077;-64
2022/08/01 01:45:46;;;;;;;6.47;3.10;;;;;;;20.41;50.70;100604.56;5029754;28;20049;-65
2022/08/01 01:48:15;;;;;;;5.00;2.95;;;;;;;20.50;50.56;100607.81;5029932;28;20057;-67
2022/08/01 01:50:44;;;;;;;5.90;2.90;;;;;;;20.41;51.23;100614.63;5030508;28;20061;-65
2022/08/01 01:53:12;;;;;;;4.45;3.10;;;;;;;20.41;50.95;100603.72;5029250;28;20076;-64
2022/08/01 01:55:43;;;;;;;4.43;2.75;;;;;;;20.27;51.75;100605.75;5030190;28;20045;-65
2022/08/01 01:58:16;;;;;;;9.60;3.03;;;;;;;20.27;51.99;100604.91;5029808;28;20045;-66
2022/08/01 02:00:45;;;;;;;4.30;3.10;;;;;;;20.24;51.81;100611.63;5029280;28;20132;-66
2022/08/01 02:03:13;;;;;;;5.18;2.95;;;;;;;20.22;52.07;100602.88;5030019;28;20069;-66
2022/08/01 02:05:40;;;;;;;6.07;2.75;;;;;;;20.20;52.12;100611.25;5030213;28;20045;-66
2022/08/01 02:08:09;;;;;;;9.07;3.47;;;;;;;20.13;52.46;100610.50;5029736;28;20439;-66
2022/08/01 02:10:37;;;;;;;6.50;2.83;;;;;;;20.10;52.78;100610.97;5029891;28;20408;-67
2022/08/01 02:13:06;;;;;;;6.72;3.08;;;;;;;20.10;52.73;100610.97;5030100;28;20513;-66
2022/08/01 02:15:38;;;;;;;4.30;3.50;;;;;;;20.07;52.92;100607.84;5029385;28;20095;-66
2022/08/01 02:18:24;;;;;;;;;;;;;;;19.99;53.19;100614.44;5029991;28;20046;-66
2022/08/01 02:20:54;;;;;;;5.88;3.60;;;;;;;19.89;53.63;100614.94;5030046;28;19927;-66
2022/08/01 02:23:23;;;;;;;5.97;4.13;;;;;;;19.91;53.71;100621.00;5030197;28;20081;-66
2022/08/01 02:25:53;;;;;;;6.65;3.70;;;;;;;19.86;54.01;100600.94;5028553;28;20128;-66
2022/08/01 02:28:45;;;;;;;6.05;3.75;;;;;;;19.79;54.19;100614.63;5020547;28;20042;-66
2022/08/01 02:31:15;;;;;;;6.47;3.60;;;;;;;19.75;54.46;100613.41;5042601;28;20041;-66
2022/08/01 02:33:46;;;;;;;4.82;3.20;;;;;;;19.79;54.03;100613.78;5028976;28;20128;-66
2022/08/01 02:36:14;;;;;;;5.85;3.35;;;;;;;19.76;54.48;100609.63;5029543;28;20049;-66
2022/08/01 02:39:02;;;;;;;7.10;3.88;;;;;;;19.79;54.68;100605.63;5030337;28;20092;-66
2022/08/01 02:41:31;;;;;;;7.78;3.90;;;;;;;19.74;54.95;100611.75;5029327;28;20568;-66
2022/08/01 02:44:03;;;;;;;5.65;3.85;;;;;;;19.69;55.30;100603.41;5029398;28;20514;-66
2022/08/01 02:46:35;;;;;;;;;;;;;;;19.72;55.36;100609.25;5032873;28;20053;-65
2022/08/01 02:49:03;;;;;;;7.60;3.58;;;;;;;19.67;55.41;100616.41;5033995;28;20016;-65
2022/08/01 02:51:32;;;;;;;5.63;3.88;;;;;;;19.61;55.64;100611.84;5033874;28;20460;-65
2022/08/01 02:54:01;;;;;;;5.50;3.40;;;;;;;19.63;56.08;100604.28;5033824;28;20072;-65
2022/08/01 02:56:34;;;;;;;5.03;3.63;;;;;;;19.64;55.85;100605.94;5033409;28;20091;-65
2022/08/01 02:59:12;;;;;;;6.18;3.47;;;;;;;19.62;55.81;100600.75;5032963;28;20044;-65
2022/08/01 03:01:41;;;;;;;6.97;4.40;;;;;;;19.63;55.94;100596.13;5032510;28;20045;-65
2022/08/01 03:04:10;;;;;;;5.88;3.85;;;;;;;19.58;55.84;100606.84;5032521;28;20046;-66
2022/08/01 03:06:38;;;;;;;5.57;3.88;;;;;;;19.56;56.40;100601.63;5031959;28;20072;-65
2022/08/01 03:09:07;;;;;;;9.98;3.92;;;;;;;19.59;55.89;100605.78;5032756;28;20049;-64
2022/08/01 03:11:37;;;;;;;7.43;3.78;;;;;;;19.51;56.11;100601.44;5032058;28;20069;-65
2022/08/01 03:14:08;;;;;;;5.30;3.55;;;;;;;19.50;56.41;100606.06;5033996;28;20083;-65
2022/08/01 03:16:39;;;;;;;8.93;3.50;;;;;;;19.47;56.60;100601.06;5012794;28;20124;-65
2022/08/01 03:19:08;;;;;;;6.80;4.00;;;;;;;19.38;56.53;100607.00;5012553;28;20512;-65
2022/08/01 03:21:37;;;;;;;7.47;3.80;;;;;;;19.45;56.70;100608.63;5012483;28;20377;-65
2022/08/01 03:24:06;;;;;;;7.50;3.75;;;;;;;19.43;57.09;100605.28;5013079;28;20133;-65
2022/08/01 03:26:35;;;;;;;9.55;3.80;;;;;;;19.40;56.94;100611.16;5012785;28;20046;-65
2022/08/01 03:29:10;;;;;;;5.18;3.80;;;;;;;19.31;57.45;100612.50;5008870;28;20124;-65
2022/08/01 03:31:38;;;;;;;6.55;3.90;;;;;;;19.38;57.08;100620.59;5011586;28;20037;-65
2022/08/01 03:34:06;;;;;;;5.88;3.70;;;;;;;19.33;57.32;100621.28;5012493;28;20076;-65
2022/08/01 03:36:39;;;;;;;6.75;3.50;;;;;;;19.52;56.72;100624.03;5012367;28;20045;-66
2022/08/01 03:39:11;;;;;;;3.90;3.40;;;;;;;19.37;57.15;100627.94;5012131;28;20061;-65
2022/08/01 03:41:40;;;;;;;5.35;3.65;;;;;;;19.36;57.52;100622.72;5011891;28;20124;-65
2022/08/01 03:44:13;;;;;;;6.45;3.83;;;;;;;19.35;57.65;100630.06;5012353;28;20081;-65
2022/08/01 03:46:47;;;;;;;4.78;3.60;;;;;;;19.34;57.78;100627.53;5012033;28;20418;-65
2022/08/01 03:49:18;;;;;;;9.55;4.22;;;;;;;19.39;57.55;100633.16;5011807;28;20502;-67
2022/08/01 03:51:49;;;;;;;7.78;4.13;;;;;;;19.47;57.40;100617.38;5012047;28;20045;-66
2022/08/01 03:54:20;;;;;;;5.27;4.00;;;;;;;19.40;57.69;100630.22;5012681;28;20050;-67
2022/08/01 03:56:49;;;;;;;5.93;3.60;;;;;;;19.48;57.17;100629.09;5011948;28;20141;-67
2022/08/01 03:59:18;;;;;;;6.28;3.90;;;;;;;19.49;57.27;100625.34;5012228;28;20050;-65
2022/08/01 04:01:46;;;;;;;6.63;3.63;;;;;;;19.49;57.33;100636.22;5011342;28;20132;-67
2022/08/01 04:04:13;;;;;;;8.45;3.70;;;;;;;19.53;57.09;100625.72;5012472;28;20513;-65
2022/08/01 04:06:41;;;;;;;5.47;3.75;;;;;;;19.53;57.37;100625.72;5011711;28;20066;-66
2022/08/01 04:09:08;;;;;;;8.10;4.43;;;;;;;19.56;57.14;100628.84;5011518;28;20069;-65
2022/08/01 04:11:39;;;;;;;9.90;6.10;;;;;;;19.65;56.43;100627.50;5011590;28;20133;-65
2022/08/01 04:14:05;;;;;;;11.55;7.45;;;;;;;19.59;56.86;100625.69;5011963;28;20409;-66
2022/08/01 04:16:35;;;;;;;9.43;6.00;;;;;;;19.64;56.93;100634.00;5011972;28;20061;-66
2022/08/01 04:19:01;;;;;;;9.70;6.03;;;;;;;19.64;57.44;100628.56;5013082;28;20065;-66
2022/08/01 04:21:31;;;;;;;9.25;5.10;;;;;;;19.64;57.30;100631.28;5012249;28;20050;-65
2022/08/01 04:24:09;;;;;;;8.02;4.88;;;;;;;19.71;56.71;100628.53;5011985;28;20104;-65
2022/08/01 04:26:37;;;;;;;8.48;5.32;;;;;;;19.70;57.14;100638.59;5012599;28;20092;-66
2022/08/01 04:29:06;;;;;;;11.43;5.47;;;;;;;19.69;57.57;100636.06;5012511;28;20046;-66
2022/08/01 04:31:35;;;;;;;9.13;5.70;;;;;;;19.69;57.65;100630.63;5011845;28;20105;-66
2022/08/01 04:34:05;;;;;;;9.32;5.05;;;;;;;19.70;57.95;100637.75;5012263;28;20054;-66
2022/08/01 04:36:34;;;;;;;9.82;6.03;;;;;;;19.68;58.10;100640.69;5011784;28;20137;-66
2022/08/01 04:39:04;;;;;;;8.35;5.35;;;;;;;19.68;57.81;100646.13;5012234;28;20140;-66
2022/08/01 04:41:32;;;;;;;11.05;5.68;;;;;;;19.74;57.80;100644.41;5011623;28;20118;-65
2022/08/01 04:43:59;;;;;;;7.93;5.40;;;;;;;19.68;58.25;100648.03;5013261;28;20513;-65
2022/08/01 04:46:28;;;;;;;7.82;5.13;;;;;;;19.72;58.05;100647.34;5012491;28;20433;-65
2022/08/01 04:48:56;;;;;;;8.63;5.22;;;;;;;19.71;58.19;100651.13;5011964;28;20129;-65
2022/08/01 04:51:22;;;;;;;7.97;5.40;;;;;;;19.67;58.03;100655.34;5012651;28;20093;-65
2022/08/01 04:53:50;;;;;;;9.70;5.75;;;;;;;19.73;58.19;100656.38;5007891;28;20052;-65
2022/08/01 04:56:18;;;;;;;9.45;5.57;;;;;;;19.73;58.30;100650.94;5022246;28;20104;-66
2022/08/01 04:58:45;;;;;;;8.45;5.28;;;;;;;19.72;58.57;100657.41;5008054;28;20050;-65
2022/08/01 05:01:13;;;;;;;8.15;5.97;;;;;;;19.68;58.76;100654.28;5012542;28;20061;-66
2022/08/01 05:03:40;;;;;;;8.60;5.53;;;;;;;19.69;58.44;100657.84;5012389;28;20072;-66
2022/08/01 05:06:06;;;;;;;7.43;5.18;;;;;;;19.78;58.45;100656.53;5011041;28;20049;-65
2022/08/01 05:08:33;;;;;;;7.18;5.55;;;;;;;19.81;58.22;100657.97;5009344;28;20073;-65
2022/08/01 05:11:00;;;;;;;11.73;5.28;;;;;;;19.75;58.59;100651.50;5010861;28;20121;-67
2022/08/01 05:13:27;;;;;;;9.40;5.38;;;;;;;19.72;58.78;100655.50;5010378;28;20061;-65
2022/08/01 05:15:54;;;;;;;13.43;5.80;;;;;;;19.75;59.24;100661.56;5010481;28;20490;-65
2022/08/01 05:18:21;;;;;;;8.57;4.78;;;;;;;19.64;58.80;100660.38;5011061;28;20066;-67
2022/08/01 05:20:54;;;;;;;10.80;6.35;;;;;;;19.70;58.93;100660.38;5010979;28;20410;-65
2022/08/01 05:23:21;;;;;;;8.18;5.47;;;;;;;19.72;59.02;100660.13;5011039;28;20129;-65
2022/08/01 05:26:08;;;;;;;10.43;5.20;;;;;;;19.76;58.81;100655.91;5010243;28;20052;-65
2022/08/01 05:28:35;;;;;;;11.80;5.82;;;;;;;19.80;58.56;100653.59;5010486;28;20058;-65
2022/08/01 05:31:02;;;;;;;6.97;4.93;;;;;;;19.84;58.55;100654.81;5014193;28;20512;-65
2022/08/01 05:33:29;;;;;;;13.88;5.57;;;;;;;19.95;58.09;100659.50;5031005;28;20136;-65
2022/08/01 05:35:55;;;;;;;7.15;5.22;;;;;;;19.96;58.43;100653.81;5049726;28;20072;-65
2022/08/01 05:38:22;;;;;;;6.05;4.10;;;;;;;19.98;57.59;100660.97;5049590;28;20120;-65
2022/08/01 05:40:48;;;;;;;5.38;3.97;;;;;;;20.06;57.66;100657.94;5049579;28;20049;-66
2022/08/01 05:43:15;;;;;;;11.32;4.32;;;;;;;20.18;57.04;100665.16;5049723;28;20083;-66
2022/08/01 05:45:41;;;;;;;6.07;3.80;;;;;;;20.29;56.09;100673.63;5048629;28;20120;-67
2022/08/01 05:48:08;;;;;;;8.13;5.15;;;;;;;20.23;57.52;100664.47;5050192;28;20388;-66
2022/08/01 05:50:34;;;;;;;8.23;4.93;;;;;;;20.41;57.38;100667.22;5049665;28;20049;-66
2022/08/01 05:53:01;;;;;;;13.02;7.55;;;;;;;20.47;57.25;100665.50;5049885;28;20045;-66
2022/08/01 05:55:28;;;;;;;9.88;4.50;;;;;;;20.40;57.07;100665.56;5049702;28;20072;-66
2022/08/01 05:57:54;;;;;;;8.30;5.65;;;;;;;20.51;56.99;100676.78;5050226;28;20084;-65
2022/08/01 06:00:21;;;;;;;6.97;5.18;;;;;;;20.49;57.29;100670.69;5050461;28;20127;-67
2022/08/01 06:02:47;;;;;;;7.63;4.78;;;;;;;20.46;57.26;100672.00;5050387;28;20095;-65
2022/08/01 06:05:15;;;;;;;6.85;4.80;;;;;;;20.45;57.40;100673.06;5050282;28;20045;-65
2022/08/01 06:07:41;;;;;;;9.18;5.45;;;;;;;20.39;57.61;100676.66;5050560;28;20128;-65
2022/08/01 06:10:08;;;;;;;8.30;5.30;;;;;;;20.46;57.46;100680.19;5041966;28;20103;-67
2022/08/01 06:12:35;;;;;;;6.90;4.78;;;;;;;20.51;57.16;100671.31;5050359;28;20072;-66
2022/08/01 06:15:03;;;;;;;7.97;4.90;;;;;;;20.44;57.21;100680.41;5050171;28;20128;-65
2022/08/01 06:17:29;;;;;;;7.13;4.22;;;;;;;20.50;57.45;100680.56;5049615;28;20136;-65
2022/08/01 06:19:56;;;;;;;11.25;6.90;;;;;;;20.44;57.57;100685.84;5051878;28;20061;-66
2022/08/01 06:22:23;;;;;;;10.18;7.20;;;;;;;20.46;57.59;100680.19;5054116;28;20463;-66
2022/08/01 06:24:51;;;;;;;6.88;4.63;;;;;;;20.45;57.85;100689.41;5053972;28;20079;-65
2022/08/01 06:27:18;;;;;;;7.10;4.35;;;;;;;20.42;58.68;100689.88;5053364;28;20069;-66
2022/08/01 06:29:48;;;;;;;5.03;4.53;;;;;;;20.34;59.40;100693.69;5053078;28;20045;-65
2022/08/01 06:32:20;;;;;;;13.77;4.88;;;;;;;20.32;59.82;100690.38;5053462;28;20045;-66
2022/08/01 06:34:52;;;;;;;10.48;4.22;;;;;;;20.29;60.11;100696.25;5052869;28;20040;-65
2022/08/01 06:37:19;;;;;;;6.45;5.20;;;;;;;20.33;60.29;100699.38;5053492;28;20059;-65
2022/08/01 06:39:45;;;;;;;5.63;4.43;;;;;;;20.36;60.17;100701.66;5054209;28;20217;-65
2022/08/01 06:42:12;;;;;;;7.55;5.13;;;;;;;20.42;59.34;100695.34;5040497;28;20501;-67
2022/08/01 06:44:39;;;;;;;4.60;3.25;;;;;;;20.63;59.14;100696.78;5032116;28;20493;-66
2022/08/01 06:47:05;;;;;;;6.72;4.75;;;;;;;20.75;58.94;100697.66;5033108;28;20144;-66
2022/08/01 06:49:32;;;;;;;4.63;3.58;;;;;;;20.80;58.27;100692.38;5033163;28;20136;-66
2022/08/01 06:51:58;;;;;;;6.95;3.13;;;;;;;20.99;57.10;100695.06;5032877;28;20056;-66
2022/08/01 06:54:25;;;;;;;5.35;3.58;;;;;;;20.97;56.56;100705.34;5033050;28;20045;-66
2022/08/01 06:56:51;;;;;;;5.72;3.30;;;;;;;20.88;57.09;100688.50;5032383;28;20144;-67
2022/08/01 06:59:18;;;;;;;9.00;4.38;;;;;;;20.88;56.81;100700.22;5027882;28;20552;-66
2022/08/01 07:01:45;;;;;;;11.48;3.40;;;;;;;20.90;56.74;100700.84;5043994;28;20124;-65
2022/08/01 07:04:11;;;;;;;4.10;2.78;;;;;;;20.86;56.99;100696.88;5032269;28;20124;-65
2022/08/01 07:06:38;;;;;;;7.63;2.72;;;;;;;20.96;56.60;100696.34;5032691;28;20041;-65
2022/08/01 07:09:04;;;;;;;5.05;2.42;;;;;;;21.10;55.97;100700.56;5032514;28;20128;-65
2022/08/01 07:11:37;;;;;;;4.70;2.22;;;;;;;21.15;56.06;100691.72;5032602;28;20115;-66
2022/08/01 07:14:04;;;;;;;2.85;2.20;;;;;;;21.26;55.36;100696.38;5032995;28;20069;-66
2022/08/01 07:16:30;;;;;;;5.25;2.10;;;;;;;21.26;55.68;100695.56;5033097;28;20077;-66
2022/08/01 07:18:57;;;;;;;3.58;2.10;;;;;;;21.26;55.69;100696.38;5032394;28;20048;-66
2022/08/01 07:21:23;;;;;;;6.45;2.80;;;;;;;21.21;55.62;100690.78;5033039;28;20053;-65
2022/08/01 07:24:07;;;;;;;3.13;2.50;;;;;;;21.14;55.72;100699.06;5032164;28;20045;-66
2022/08/01 07:26:43;;;;;;;3.97;1.85;;;;;;;21.07;56.19;100697.47;5032626;28;20078;-65
2022/08/01 07:29:23;;;;;;;2.53;2.25;;;;;;;21.07;55.63;100698.28;5032964;28;20465;-65
2022/08/01 07:31:55;;;;;;;5.90;2.33;;;;;;;21.19;55.61;100703.84;5032366;28;20703;-66
2022/08/01 07:34:22;;;;;;;;;;;;;;;21.47;54.50;100707.84;5032494;28;20137;-65
2022/08/01 07:36:50;;;;;;;5.47;2.50;;;;;;;21.59;53.67;100700.50;5032110;28;19951;-66
2022/08/01 07:39:17;;;;;;;3.25;2.10;;;;;;;21.81;53.50;100706.28;5030832;28;20132;-67
2022/08/01 07:41:43;;;;;;;5.03;2.70;;;;;;;22.00;52.90;100707.00;5032001;28;20493;-67
2022/08/01 07:44:30;;;;;;;2.78;2.00;;;;;;;21.93;52.65;100706.28;5032048;28;20054;-66
2022/08/01 07:46:56;;;;;;;4.45;2.28;;;;;;;21.82;52.75;100711.50;5032525;28;20557;-65
2022/08/01 07:49:23;;;;;;;10.80;3.80;;;;;;;21.74;52.63;100717.28;5032310;28;20140;-67
2022/08/01 07:51:49;;;;;;;3.15;2.70;;;;;;;21.72;52.75;100711.22;5031828;28;20081;-67
2022/08/01 07:54:30;;;;;;;8.43;2.90;;;;;;;21.61;52.84;100714.78;5026752;28;20148;-65
2022/08/01 07:57:00;;;;;;;8.50;3.25;;;;;;;21.60;52.67;100718.56;5032181;28;20104;-67
2022/08/01 07:59:26;;;;;;;7.85;4.82;;;;;;;21.68;52.31;100723.69;5031920;28;20061;-67
2022/08/01 08:01:53;;;;;;;11.90;5.40;;;;;;;21.62;52.08;100733.63;5031720;28;20132;-67
2022/08/01 08:04:19;;;;;;;6.18;4.40;;;;;;;21.60;51.88;100733.06;5032135;28;20370;-66
2022/08/01 08:06:47;;;;;;;12.45;7.60;;;;;;;21.54;51.67;100730.41;5032355;28;20046;-67
2022/08/01 08:09:15;;;;;;;8.60;6.32;;;;;;;21.34;52.20;100736.16;5032562;28;20076;-66
2022/08/01 08:11:43;;;;;;;9.07;6.10;;;;;;;21.31;52.41;100729.25;5031032;28;20141;-67
2022/08/01 08:14:13;;;;;;;13.90;6.18;;;;;;;21.28;52.08;100729.72;5032416;28;20049;-65
2022/08/01 08:16:40;;;;;;;10.30;7.15;;;;;;;21.18;52.59;100732.16;5031954;28;20045;-66
2022/08/01 08:19:06;;;;;;;10.63;6.13;;;;;;;21.08;52.77;100734.59;5030896;28;20137;-66
2022/08/01 08:21:33;;;;;;;6.65;4.70;;;;;;;21.09;52.71;100736.25;5031659;28;20049;-66
2022/08/01 08:26:57;;;;;;;13.13;5.20;;;;;;;21.30;51.58;100746.69;5031793;28;20515;-67
2022/08/01 08:29:26;;;;;;;10.20;5.03;;;;;;;21.38;51.26;100743.63;5031229;28;20077;-67
2022/08/01 08:31:54;;;;;;;19.58;5.30;;;;;;;21.67;50.38;100735.69;5031609;28;20080;-64
2022/08/01 08:34:22;;;;;;;8.80;5.85;;;;;;;22.47;48.13;100739.84;5031858;28;20096;-68
2022/08/01 08:36:49;;;;;;;6.20;3.47;;;;;;;22.55;47.82;100734.00;5031612;28;20432;-67
2022/08/01 08:39:17;;;;;;;5.50;3.10;;;;;;;22.66;47.44;100741.34;5041447;28;20052;-67
2022/08/01 08:41:46;;;;;;;6.97;3.95;;;;;;;23.06;46.26;100737.81;5051614;28;20128;-66
2022/08/01 08:44:16;;;;;;;6.32;3.25;;;;;;;22.90;46.27;100742.13;5051695;28;20095;-65
2022/08/01 08:46:45;;;;;;;4.95;2.53;;;;;;;22.65;47.31;100736.97;5051420;28;20048;-66
2022/08/01 08:49:16;;;;;;;7.05;2.53;;;;;;;22.64;47.27;100739.94;5051583;28;20438;-66
2022/08/01 08:51:46;;;;;;;6.18;2.22;;;;;;;22.63;46.87;100739.09;5047021;28;20386;-66
2022/08/01 08:54:15;;;;;;;9.77;2.43;;;;;;;22.97;45.36;100733.78;5051488;28;20072;-66
2022/08/01 08:56:43;;;;;;;13.98;2.58;;;;;;;22.86;45.73;100745.59;5051532;28;20341;-67
2022/08/01 08:59:15;;;;;;;8.35;2.90;;;;;;;23.00;45.31;100749.72;5049882;28;20504;-67
2022/08/01 09:01:42;;;;;;;6.03;3.70;;;;;;;22.88;45.17;100743.44;5051078;28;20136;-66
2022/08/01 09:04:10;;;;;;;16.45;2.67;;;;;;;22.91;44.76;100743.78;5051155;28;20068;-67
2022/08/01 09:06:37;;;;;;;10.68;2.55;;;;;;;22.85;45.00;100752.16;5050880;28;20150;-65
2022/08/01 09:09:05;;;;;;;7.38;2.42;;;;;;;22.55;45.94;100751.25;5050689;28;20064;-66
2022/08/01 09:11:33;;;;;;;9.52;2.22;;;;;;;22.54;45.70;100756.97;5051322;28;20453;-66
2022/08/01 09:14:07;;;;;;;6.80;1.88;;;;;;;22.22;46.50;100757.28;5051753;28;20053;-66
2022/08/01 09:16:36;;;;;;;4.95;2.00;;;;;;;22.21;46.83;100763.81;5051527;28;20080;-66
2022/08/01 09:19:17;;;;;;;7.35;1.90;;;;;;;22.15;47.20;100762.03;5050748;28;20132;-66
2022/08/01 09:22:06;;;;;;;10.52;1.63;;;;;;;22.14;46.99;100765.81;5050783;28;20111;-66
2022/08/01 09:24:35;;;;;;;5.85;1.73;;;;;;;22.08;46.98;100774.94;5050290;28;20103;-67
2022/08/01 09:27:16;;;;;;;6.75;2.15;;;;;;;21.98;47.81;100778.28;5050916;28;20076;-66
2022/08/01 09:29:47;;;;;;;7.35;1.83;;;;;;;21.82;48.15;100785.25;5051135;28;20066;-67
2022/08/01 09:32:26;;;;;;;5.95;2.13;;;;;;;21.99;48.07;100792.78;5049944;28;20455;-67
2022/08/01 09:35:25;;;;;;;8.55;2.00;;;;;;;21.99;48.48;100776.38;5039720;28;20140;-66
2022/08/01 09:38:19;;;;;;;4.50;1.55;;;;;;;22.07;48.27;100781.50;5049873;28;20389;-65
2022/08/01 09:40:48;;;;;;;5.13;1.77;;;;;;;22.19;48.33;100782.34;5049098;28;20064;-65
2022/08/01 09:43:16;;;;;;;3.58;1.90;;;;;;;22.28;47.93;100783.66;5049512;28;20095;-65
2022/08/01 09:45:42;;;;;;;9.52;1.70;;;;;;;22.05;47.73;100781.75;5049253;28;20123;-66
2022/08/01 09:48:16;;;;;;;7.47;1.50;;;;;;;21.87;48.41;100794.63;5048814;28;20056;-65
2022/08/01 09:50:47;;;;;;;5.05;1.58;;;;;;;21.74;48.32;100795.66;5049708;28;20076;-67
2022/08/01 09:53:15;;;;;;;3.22;1.58;;;;;;;21.93;47.90;100802.72;5050627;28;20411;-67
2022/08/01 09:56:09;;;;;;;2.95;1.38;;;;;;;21.91;48.00;100801.28;5047751;28;20075;-66
2022/08/01 09:58:56;;;;;;;2.67;1.75;;;;;;;21.52;48.69;100806.22;5054344;28;20103;-66
2022/08/01 10:01:48;;;;;;;4.68;1.48;;;;;;;21.31;49.36;100808.38;5053858;28;20041;-66
2022/08/01 10:04:22;;;;;;;6.22;1.40;;;;;;;21.60;49.00;100811.38;5053052;28;20052;-66
2022/08/01 10:06:53;;;;;;;2.70;1.40;;;;;;;21.64;48.97;100811.75;5043587;28;20044;-66
2022/08/01 10:09:30;;;;;;;7.28;1.63;;;;;;;21.41;49.66;100809.75;5054146;28;20521;-65
2022/08/01 10:12:07;;;;;;;1.95;1.40;;;;;;;21.43;49.09;100813.09;5053799;28;20358;-65
2022/08/01 10:14:42;;;;;;;5.68;1.45;;;;;;;21.49;49.20;100826.63;5036643;28;20493;-65
2022/08/01 10:17:14;;;;;;;7.43;2.00;;;;;;;21.20;49.82;100817.34;5048904;28;22562;-65
2022/08/01 10:19:46;;;;;;;2.90;1.55;;;;;;;21.54;49.30;100825.97;5053507;28;20106;-66
2022/08/01 10:22:16;;;;;;;9.43;1.70;;;;;;;21.58;49.35;100818.97;5053831;28;20110;-66
2022/08/01 10:24:46;;;;;;;5.43;1.45;;;;;;;21.39;49.66;100818.19;5053895;28;20444;-66
2022/08/01 10:27:16;;;;;;;3.08;1.55;;;;;;;21.64;49.08;100825.41;5053917;28;20061;-66
2022/08/01 10:30:05;;;;;;;3.08;1.10;;;;;;;21.72;48.99;100827.81;5053975;28;20036;-66
2022/08/01 10:32:47;;;;;;;4.85;1.50;;;;;;;21.66;49.08;100821.34;5052579;28;20044;-66
2022/08/01 10:35:17;;;;;;;3.28;1.30;;;;;;;21.79;48.96;100821.22;5050004;28;20056;-67
2022/08/01 10:38:04;;;;;;;2.15;1.30;;;;;;;21.94;48.84;100826.22;5053159;28;20055;-66
2022/08/01 10:40:31;;;;;;;12.68;2.30;;;;;;;21.81;49.03;100823.72;5052689;28;20734;-67
2022/08/01 10:42:58;;;;;;;7.95;1.20;;;;;;;22.07;48.01;100823.31;5053357;28;20124;-67
2022/08/01 10:45:26;;;;;;;7.72;1.38;;;;;;;22.09;47.60;100832.09;5052739;28;20052;-67
2022/08/01 10:48:06;;;;;;;4.93;1.00;;;;;;;22.08;47.60;100824.13;5052535;28;20044;-66
2022/08/01 10:50:39;;;;;;;7.97;1.45;;;;;;;22.03;48.03;100829.47;5052713;28;20048;-66
2022/08/01 10:53:14;;;;;;;1.60;1.08;;;;;;;22.29;47.11;100820.88;5053873;28;20068;-67
2022/08/01 10:55:56;;;;;;;4.53;1.30;;;;;;;22.41;47.13;100822.78;5053371;28;20072;-67
2022/08/01 10:58:32;;;;;;;3.90;1.20;;;;;;;22.36;47.34;100825.34;5054071;28;20136;-66
2022/08/01 11:01:14;;;;;;;6.07;3.08;;;;;;;22.23;47.49;100829.16;5053003;28;20045;-67
2022/08/01 11:03:43;;;;;;;5.97;4.00;;;;;;;22.18;47.68;100824.38;5053471;28;20394;-67
2022/08/01 11:06:33;;;;;;;5.63;2.50;;;;;;;22.18;47.53;100829.84;5047567;28;20465;-66
2022/08/01 11:09:20;;;;;;;26.42;2.80;;;;;;;22.19;47.57;100826.06;5052392;28;20101;-67
2022/08/01 11:11:57;;;;;;;7.13;1.40;;;;;;;22.33;47.00;100834.88;5052796;28;20072;-66
2022/08/01 11:14:26;;;;;;;3.22;1.10;;;;;;;22.50;46.65;100830.41;5045858;28;20128;-67
2022/08/01 11:17:41;;;;;;;5.97;1.48;;;;;;;22.55;46.52;100835.16;5011075;28;20079;-67
2022/08/01 11:20:13;;;;;;;6.30;1.52;;;;;;;22.47;46.33;100843.72;5032857;28;20064;-66
2022/08/01 11:23:16;;;;;;;3.65;1.10;;;;;;;22.25;46.92;100844.25;5044595;28;20124;-66
2022/08/01 11:25:45;;;;;;;6.28;1.50;;;;;;;22.26;47.27;100847.84;4950916;29;20047;-67
2022/08/01 11:28:32;;;;;;;4.22;0.88;;;;;;;21.85;48.66;100850.31;4952700;29;20125;-67
2022/08/01 11:31:02;;;;;;;4.88;1.40;;;;;;;22.03;48.34;100854.06;4952829;29;20071;-67
2022/08/01 11:33:42;;;;;;;3.92;1.00;;;;;;;22.04;48.72;100851.09;4952319;29;20047;-67
2022/08/01 11:36:12;;;;;;;1.55;0.88;;;;;;;21.81;48.96;100856.50;4953118;29;20051;-67
2022/08/01 11:38:43;;;;;;;2.72;1.10;;;;;;;21.68;49.67;100859.38;4952569;29;20059;-66
2022/08/01 11:41:11;;;;;;;6.15;1.10;;;;;;;21.71;49.30;100864.38;4952342;29;20061;-66
2022/08/01 11:44:00;;;;;;;5.43;1.05;;;;;;;21.67;49.07;100876.78;4951791;29;20058;-66